Skip to content
You are here: Gozo Weather
Gozo Weather Station for the very latest live weather conditions from Gozo and Malta
 
 TIME   TEMPERATURE   WINDSPEED   DIRECTION   HUMIDITY   BAROMETER   RAINFALL 
12:15 25.9°C (78.6°F) 18.5 kmh (11.5 mph) NNW 60% 1014.0hPa (29.94 inHg) 0.0mm (0.00 in.)
11:09 25.5°C (77.9 °F) 31.5 kmh (19.6 mph) NNW 63% 1014.0hPa (29.94 inHg) 0.0mm (0.00 in.)
10:09 24.8°C (76.6 °F) 18.5 kmh (11.5 mph) WNW 66% 1014.0hPa (29.94 inHg) 0.0mm (0.00 in.)
9:09 24.5°C (76.1 °F) 27.8 kmh (17.3 mph) N 68% 1014.0hPa (29.94 inHg) 0.0mm (0.00 in.)
8:09 24.2°C (75.6 °F) 22.2 kmh (13.8 mph) NNW 76% 1013.0hPa (29.91 inHg) 0.0mm (0.00 in.)
7:09 23.2°C (73.8 °F) 18.5 kmh (11.5 mph) NNW 78% 1029.0hPa (30.39 inHg) 0.0mm (0.00 in.)
6:09 23.0°C (73.4 °F) 14.8 kmh (9.2 mph) NNW 78% 1012.0hPa (29.88 inHg) 0.0mm (0.00 in.)
5:09 23.1°C (73.6 °F) 16.7 kmh (10.4 mph) NNW 77% 1012.0hPa (29.88 inHg) 0.0mm (0.00 in.)
4:09 23.3°C (73.9 °F) 25.9 kmh (16.1 mph) NNW 77% 1012.0hPa (29.88 inHg) 0.0mm (0.00 in.)
3:09 23.4°C (74.1 °F) 24.1 kmh (15.0 mph) WNW 75% 1013.0hPa (29.91 inHg) 0.0mm (0.00 in.)
2:09 23.6°C (74.5 °F) 20.4 kmh (12.7 mph) NNW 70% 1013.0hPa (29.91 inHg) 0.0mm (0.00 in.)
1:09 23.8°C (74.8 °F) 31.5 kmh (19.6 mph) NNW 69% 1013.0hPa (29.91 inHg) 0.0mm (0.00 in.)
12:09 24.4°C (75.9 °F) 16.7 kmh (10.4 mph) NW 64% 1013.0hPa (29.91 inHg) 0.0mm (0.00 in.)
11:09 24.3°C (75.7 °F) 27.8 kmh (17.3 mph) WNW 59% 1013.0hPa (29.91 inHg) 0.0mm (0.00 in.)
10:09 24.5°C (76.1 °F) 16.7 kmh (10.4 mph) NNW 59% 1013.0hPa (29.91 inHg) 0.0mm (0.00 in.)
9:09 24.3°C (75.7 °F) 22.2 kmh (13.8 mph) NNW 57% 1012.0hPa (29.88 inHg) 0.0mm (0.00 in.)
8:09 24.7°C (76.5 °F) 18.5 kmh (11.5 mph) WNW 60% 1012.0hPa (29.88 inHg) 0.0mm (0.00 in.)
7:09 25.4°C (77.7 °F) 25.9 kmh (16.1 mph) NW 60% 1011.0hPa (29.85 inHg) 0.0mm (0.00 in.)
6:09 26.2°C (79.2 °F) 25.9 kmh (16.1 mph) NNW 62% 1011.0hPa (29.85 inHg) 0.0mm (0.00 in.)
5:09 26.8°C (80.2 °F) 20.4 kmh (12.7 mph) NW 64% 1012.0hPa (29.88 inHg) 0.0mm (0.00 in.)
4:09 26.6°C (79.9 °F) 25.9 kmh (16.1 mph) N 64% 1012.0hPa (29.88 inHg) 0.0mm (0.00 in.)
3:09 26.6°C (79.9 °F) 20.4 kmh (12.7 mph) NNW 66% 1012.0hPa (29.88 inHg) 0.0mm (0.00 in.)
2:09 26.6°C (79.9 °F) 18.5 kmh (11.5 mph) N 67% 1012.0hPa (29.88 inHg) 0.0mm (0.00 in.)
1:09 26.2°C (79.2 °F) 24.1 kmh (15.0 mph) NNE 69% 1012.0hPa (29.88 inHg) 0.0mm (0.00 in.)

You need the latest version of Flash Player to view some of our content.


Why not download and install the latest version now?
It will only take you a moment and will ensure that you can view all the latest flash designed websites.

Translate this page

Animated Satellite

Click per aprire http://www.gozo.ws/Animation.php
copyright 2014 EUMETSAT

European Lightning Activity


Please click image for full size

Sponsored Links